Stonybrook, Pennsylvania
Current Conditions -  °F | °C
As of 12:53 AM on Saturday 25 Oct 2014 (Local Time) from KTHV Reporting Station
Clear Clear  
Wind Chill: 50°   Ceiling: Unl
Heat Index: 50°   Visibility: 10mi
Dew Point: 37°   Wind: 5mph
Humidity: 61%   Direction: 270°W
Pressure: 29.94"   Gusts: NA
Location:  39.9768°N, 76.6853°W
Report Text: KTHV 250453Z AUTO 27004KT 10SM CLR 10/03 A2994 RMK AO2 SLP141 T01000028 402060078
Loading
Personal Weather Stations






























Interactive Weather Map
Tropical Storm Tracking
New forecast layout! Learn more

10-Day Weather Forecast

Advertisements
Track Severe Weather on mobile